sensor_id;sensor_type;location;lat;lon;timestamp;temperature;humidity
32322;DHT22;61553;48.994;8.940;2023-05-10T00:00:51;13.70;99.90
32322;DHT22;61553;48.994;8.940;2023-05-10T00:03:16;13.60;99.90
32322;DHT22;61553;48.994;8.940;2023-05-10T00:05:42;13.60;99.90
32322;DHT22;61553;48.994;8.940;2023-05-10T00:08:08;13.50;99.90
32322;DHT22;61553;48.994;8.940;2023-05-10T00:10:33;13.50;99.90
32322;DHT22;61553;48.994;8.940;2023-05-10T00:12:59;13.50;99.90
32322;DHT22;61553;48.994;8.940;2023-05-10T00:15:25;13.60;99.90
32322;DHT22;61553;48.994;8.940;2023-05-10T00:17:51;13.60;99.90
32322;DHT22;61553;48.994;8.940;2023-05-10T00:20:16;13.50;99.90
32322;DHT22;61553;48.994;8.940;2023-05-10T00:22:42;13.50;99.90
32322;DHT22;61553;48.994;8.940;2023-05-10T00:25:08;13.50;99.90
32322;DHT22;61553;48.994;8.940;2023-05-10T00:27:34;13.50;99.90
32322;DHT22;61553;48.994;8.940;2023-05-10T00:30:00;13.40;99.90
32322;DHT22;61553;48.994;8.940;2023-05-10T00:32:25;13.40;99.90
32322;DHT22;61553;48.994;8.940;2023-05-10T00:34:51;13.30;99.90
32322;DHT22;61553;48.994;8.940;2023-05-10T00:37:17;13.20;99.90
32322;DHT22;61553;48.994;8.940;2023-05-10T00:39:42;13.20;99.90
32322;DHT22;61553;48.994;8.940;2023-05-10T00:42:08;13.20;99.90
32322;DHT22;61553;48.994;8.940;2023-05-10T00:44:34;13.20;99.90
32322;DHT22;61553;48.994;8.940;2023-05-10T00:46:59;13.10;99.90
32322;DHT22;61553;48.994;8.940;2023-05-10T00:49:25;13.10;99.90
32322;DHT22;61553;48.994;8.940;2023-05-10T00:51:51;13.10;99.90
32322;DHT22;61553;48.994;8.940;2023-05-10T00:54:17;13.10;99.90
32322;DHT22;61553;48.994;8.940;2023-05-10T00:56:43;13.00;99.90
32322;DHT22;61553;48.994;8.940;2023-05-10T00:59:15;13.00;99.90
32322;DHT22;61553;48.994;8.940;2023-05-10T01:01:42;13.00;99.90
32322;DHT22;61553;48.994;8.940;2023-05-10T01:04:09;13.00;99.90
32322;DHT22;61553;48.994;8.940;2023-05-10T01:06:36;13.00;99.90
32322;DHT22;61553;48.994;8.940;2023-05-10T01:09:02;13.00;99.90
32322;DHT22;61553;48.994;8.940;2023-05-10T01:11:27;13.00;99.90
32322;DHT22;61553;48.994;8.940;2023-05-10T01:13:56;13.00;99.90
32322;DHT22;61553;48.994;8.940;2023-05-10T01:16:23;13.00;99.90
32322;DHT22;61553;48.994;8.940;2023-05-10T01:18:51;12.90;99.90
32322;DHT22;61553;48.994;8.940;2023-05-10T01:29:45;13.00;99.90
32322;DHT22;61553;48.994;8.940;2023-05-10T01:38:11;13.00;99.90
32322;DHT22;61553;48.994;8.940;2023-05-10T01:43:37;13.00;99.90
32322;DHT22;61553;48.994;8.940;2023-05-10T01:46:09;13.00;99.90
32322;DHT22;61553;48.994;8.940;2023-05-10T01:48:47;13.00;99.90
32322;DHT22;61553;48.994;8.940;2023-05-10T01:51:21;13.00;99.90
32322;DHT22;61553;48.994;8.940;2023-05-10T01:53:48;13.00;99.90
32322;DHT22;61553;48.994;8.940;2023-05-10T01:56:16;13.00;99.90
32322;DHT22;61553;48.994;8.940;2023-05-10T01:58:44;13.10;99.90
32322;DHT22;61553;48.994;8.940;2023-05-10T02:01:12;13.10;99.90
32322;DHT22;61553;48.994;8.940;2023-05-10T02:03:39;13.00;99.90
32322;DHT22;61553;48.994;8.940;2023-05-10T02:06:06;13.00;99.90
32322;DHT22;61553;48.994;8.940;2023-05-10T02:08:34;13.00;99.90
32322;DHT22;61553;48.994;8.940;2023-05-10T02:11:01;13.00;99.90
32322;DHT22;61553;48.994;8.940;2023-05-10T02:13:28;13.10;99.90
32322;DHT22;61553;48.994;8.940;2023-05-10T02:15:55;13.00;99.90
32322;DHT22;61553;48.994;8.940;2023-05-10T02:18:23;13.10;99.90
32322;DHT22;61553;48.994;8.940;2023-05-10T02:20:52;13.10;99.90
32322;DHT22;61553;48.994;8.940;2023-05-10T02:23:20;13.20;99.90
32322;DHT22;61553;48.994;8.940;2023-05-10T02:25:47;13.20;99.90
32322;DHT22;61553;48.994;8.940;2023-05-10T02:28:14;13.20;99.90
32322;DHT22;61553;48.994;8.940;2023-05-10T02:30:41;13.20;99.90
32322;DHT22;61553;48.994;8.940;2023-05-10T02:33:07;13.10;99.90
32322;DHT22;61553;48.994;8.940;2023-05-10T02:35:34;13.10;99.90
32322;DHT22;61553;48.994;8.940;2023-05-10T02:38:00;13.10;99.90
32322;DHT22;61553;48.994;8.940;2023-05-10T02:40:27;13.10;99.90
32322;DHT22;61553;48.994;8.940;2023-05-10T02:42:55;13.10;99.90
32322;DHT22;61553;48.994;8.940;2023-05-10T02:45:24;13.10;99.90
32322;DHT22;61553;48.994;8.940;2023-05-10T02:47:51;13.00;99.90
32322;DHT22;61553;48.994;8.940;2023-05-10T02:50:18;13.10;99.90
32322;DHT22;61553;48.994;8.940;2023-05-10T02:52:47;13.10;99.90
32322;DHT22;61553;48.994;8.940;2023-05-10T02:55:15;13.10;99.90
32322;DHT22;61553;48.994;8.940;2023-05-10T02:57:46;13.10;99.90
32322;DHT22;61553;48.994;8.940;2023-05-10T03:00:14;13.10;99.90
32322;DHT22;61553;48.994;8.940;2023-05-10T03:02:39;13.10;99.90
32322;DHT22;61553;48.994;8.940;2023-05-10T03:05:05;13.20;99.90
32322;DHT22;61553;48.994;8.940;2023-05-10T03:07:32;13.20;99.90
32322;DHT22;61553;48.994;8.940;2023-05-10T03:09:58;13.20;99.90
32322;DHT22;61553;48.994;8.940;2023-05-10T03:12:37;13.10;99.90
32322;DHT22;61553;48.994;8.940;2023-05-10T03:17:45;13.20;99.90
32322;DHT22;61553;48.994;8.940;2023-05-10T03:20:20;13.30;99.90
32322;DHT22;61553;48.994;8.940;2023-05-10T03:22:51;13.30;99.90
32322;DHT22;61553;48.994;8.940;2023-05-10T03:25:19;13.30;99.90
32322;DHT22;61553;48.994;8.940;2023-05-10T03:27:45;13.30;99.90
32322;DHT22;61553;48.994;8.940;2023-05-10T03:30:12;13.30;99.90
32322;DHT22;61553;48.994;8.940;2023-05-10T03:32:38;13.30;99.90
32322;DHT22;61553;48.994;8.940;2023-05-10T03:35:11;13.20;99.90
32322;DHT22;61553;48.994;8.940;2023-05-10T03:37:38;13.20;99.90
32322;DHT22;61553;48.994;8.940;2023-05-10T03:40:04;13.20;99.90
32322;DHT22;61553;48.994;8.940;2023-05-10T03:42:30;13.20;99.90
32322;DHT22;61553;48.994;8.940;2023-05-10T03:44:56;13.20;99.90
32322;DHT22;61553;48.994;8.940;2023-05-10T03:47:21;13.20;99.90
32322;DHT22;61553;48.994;8.940;2023-05-10T03:49:47;13.20;99.90
32322;DHT22;61553;48.994;8.940;2023-05-10T03:52:12;13.20;99.90
32322;DHT22;61553;48.994;8.940;2023-05-10T03:54:38;13.20;99.90
32322;DHT22;61553;48.994;8.940;2023-05-10T03:57:04;13.10;99.90
32322;DHT22;61553;48.994;8.940;2023-05-10T03:59:29;13.10;99.90
32322;DHT22;61553;48.994;8.940;2023-05-10T04:01:55;13.10;99.90
32322;DHT22;61553;48.994;8.940;2023-05-10T04:04:21;13.10;99.90
32322;DHT22;61553;48.994;8.940;2023-05-10T04:06:47;13.20;99.90
32322;DHT22;61553;48.994;8.940;2023-05-10T04:09:13;13.10;99.90
32322;DHT22;61553;48.994;8.940;2023-05-10T04:11:39;13.10;99.90
32322;DHT22;61553;48.994;8.940;2023-05-10T04:14:05;13.10;99.90
32322;DHT22;61553;48.994;8.940;2023-05-10T04:16:30;13.10;99.90
32322;DHT22;61553;48.994;8.940;2023-05-10T04:18:56;13.00;99.90
32322;DHT22;61553;48.994;8.940;2023-05-10T04:21:22;13.10;99.90
32322;DHT22;61553;48.994;8.940;2023-05-10T04:23:48;13.10;99.90
32322;DHT22;61553;48.994;8.940;2023-05-10T04:26:14;13.10;99.90
32322;DHT22;61553;48.994;8.940;2023-05-10T04:28:39;13.20;99.90
32322;DHT22;61553;48.994;8.940;2023-05-10T04:31:07;13.10;99.90
32322;DHT22;61553;48.994;8.940;2023-05-10T04:33:33;13.10;99.90
32322;DHT22;61553;48.994;8.940;2023-05-10T04:35:59;13.20;99.90
32322;DHT22;61553;48.994;8.940;2023-05-10T04:38:25;13.10;99.90
32322;DHT22;61553;48.994;8.940;2023-05-10T04:40:51;13.10;99.90
32322;DHT22;61553;48.994;8.940;2023-05-10T04:43:16;13.10;99.90
32322;DHT22;61553;48.994;8.940;2023-05-10T04:45:42;13.20;99.90
32322;DHT22;61553;48.994;8.940;2023-05-10T04:48:07;13.30;99.90
32322;DHT22;61553;48.994;8.940;2023-05-10T04:50:33;13.30;99.90
32322;DHT22;61553;48.994;8.940;2023-05-10T04:52:59;13.30;99.90
32322;DHT22;61553;48.994;8.940;2023-05-10T04:55:24;13.20;99.90
32322;DHT22;61553;48.994;8.940;2023-05-10T04:57:51;13.20;99.90
32322;DHT22;61553;48.994;8.940;2023-05-10T05:00:17;13.30;99.90
32322;DHT22;61553;48.994;8.940;2023-05-10T05:02:43;13.40;99.90
32322;DHT22;61553;48.994;8.940;2023-05-10T05:05:11;13.40;99.90
32322;DHT22;61553;48.994;8.940;2023-05-10T05:07:36;13.50;99.90
32322;DHT22;61553;48.994;8.940;2023-05-10T05:10:04;13.40;99.90
32322;DHT22;61553;48.994;8.940;2023-05-10T05:12:30;13.50;99.90
32322;DHT22;61553;48.994;8.940;2023-05-10T05:14:56;13.50;99.90
32322;DHT22;61553;48.994;8.940;2023-05-10T05:17:22;13.50;99.90
32322;DHT22;61553;48.994;8.940;2023-05-10T05:19:47;13.60;99.90
32322;DHT22;61553;48.994;8.940;2023-05-10T05:22:13;13.60;99.90
32322;DHT22;61553;48.994;8.940;2023-05-10T05:24:38;13.60;99.90
32322;DHT22;61553;48.994;8.940;2023-05-10T05:27:04;13.60;99.90
32322;DHT22;61553;48.994;8.940;2023-05-10T05:29:30;13.70;99.90
32322;DHT22;61553;48.994;8.940;2023-05-10T05:31:56;13.80;99.90
32322;DHT22;61553;48.994;8.940;2023-05-10T05:34:21;13.80;99.90
32322;DHT22;61553;48.994;8.940;2023-05-10T05:36:47;13.90;99.90
32322;DHT22;61553;48.994;8.940;2023-05-10T05:39:13;13.90;99.90
32322;DHT22;61553;48.994;8.940;2023-05-10T05:41:39;13.90;99.90
32322;DHT22;61553;48.994;8.940;2023-05-10T05:44:04;13.90;99.90
32322;DHT22;61553;48.994;8.940;2023-05-10T05:46:30;14.00;99.90
32322;DHT22;61553;48.994;8.940;2023-05-10T05:48:56;14.00;99.90
32322;DHT22;61553;48.994;8.940;2023-05-10T05:51:22;14.00;99.90
32322;DHT22;61553;48.994;8.940;2023-05-10T05:53:47;14.10;99.90
32322;DHT22;61553;48.994;8.940;2023-05-10T05:56:13;14.10;99.90
32322;DHT22;61553;48.994;8.940;2023-05-10T05:58:39;14.10;99.90
32322;DHT22;61553;48.994;8.940;2023-05-10T06:01:04;14.10;99.90
32322;DHT22;61553;48.994;8.940;2023-05-10T06:03:30;14.20;99.90
32322;DHT22;61553;48.994;8.940;2023-05-10T06:05:56;14.20;99.90
32322;DHT22;61553;48.994;8.940;2023-05-10T06:08:21;14.20;99.90
32322;DHT22;61553;48.994;8.940;2023-05-10T06:10:47;14.30;99.90
32322;DHT22;61553;48.994;8.940;2023-05-10T06:13:13;14.20;99.90
32322;DHT22;61553;48.994;8.940;2023-05-10T06:15:39;14.30;99.90
32322;DHT22;61553;48.994;8.940;2023-05-10T06:18:05;14.40;99.90
32322;DHT22;61553;48.994;8.940;2023-05-10T06:20:31;14.50;99.90
32322;DHT22;61553;48.994;8.940;2023-05-10T06:22:57;14.70;99.90
32322;DHT22;61553;48.994;8.940;2023-05-10T06:25:23;14.90;99.90
32322;DHT22;61553;48.994;8.940;2023-05-10T06:27:49;15.00;99.90
32322;DHT22;61553;48.994;8.940;2023-05-10T06:30:14;15.10;99.90
32322;DHT22;61553;48.994;8.940;2023-05-10T06:32:41;15.10;99.90
32322;DHT22;61553;48.994;8.940;2023-05-10T06:35:07;15.20;99.90
32322;DHT22;61553;48.994;8.940;2023-05-10T06:37:33;15.30;99.90
32322;DHT22;61553;48.994;8.940;2023-05-10T06:39:59;15.40;99.90
32322;DHT22;61553;48.994;8.940;2023-05-10T06:42:25;15.60;99.90
32322;DHT22;61553;48.994;8.940;2023-05-10T06:44:52;15.80;99.90
32322;DHT22;61553;48.994;8.940;2023-05-10T06:47:18;16.10;99.90
32322;DHT22;61553;48.994;8.940;2023-05-10T06:49:44;16.30;99.90
32322;DHT22;61553;48.994;8.940;2023-05-10T06:52:09;16.20;99.90
32322;DHT22;61553;48.994;8.940;2023-05-10T06:54:35;16.20;99.90
32322;DHT22;61553;48.994;8.940;2023-05-10T06:57:00;16.20;99.90
32322;DHT22;61553;48.994;8.940;2023-05-10T06:59:28;16.30;99.90
32322;DHT22;61553;48.994;8.940;2023-05-10T07:01:54;16.20;99.90
32322;DHT22;61553;48.994;8.940;2023-05-10T07:04:20;16.10;99.90
32322;DHT22;61553;48.994;8.940;2023-05-10T07:06:45;16.00;99.90
32322;DHT22;61553;48.994;8.940;2023-05-10T07:09:11;16.10;99.90
32322;DHT22;61553;48.994;8.940;2023-05-10T07:11:38;16.30;99.90
32322;DHT22;61553;48.994;8.940;2023-05-10T07:14:04;16.30;99.90
32322;DHT22;61553;48.994;8.940;2023-05-10T07:16:30;16.40;99.90
32322;DHT22;61553;48.994;8.940;2023-05-10T07:18:56;16.60;99.90
32322;DHT22;61553;48.994;8.940;2023-05-10T07:21:22;16.70;99.90
32322;DHT22;61553;48.994;8.940;2023-05-10T07:23:49;16.70;99.90
32322;DHT22;61553;48.994;8.940;2023-05-10T07:26:15;16.60;99.90
32322;DHT22;61553;48.994;8.940;2023-05-10T07:28:41;16.70;99.90
32322;DHT22;61553;48.994;8.940;2023-05-10T07:31:07;16.60;99.90
32322;DHT22;61553;48.994;8.940;2023-05-10T07:33:33;16.50;99.90
32322;DHT22;61553;48.994;8.940;2023-05-10T07:35:58;16.60;99.90
32322;DHT22;61553;48.994;8.940;2023-05-10T07:38:24;16.60;99.90
32322;DHT22;61553;48.994;8.940;2023-05-10T07:40:49;16.60;99.90
32322;DHT22;61553;48.994;8.940;2023-05-10T07:43:15;16.60;99.90
32322;DHT22;61553;48.994;8.940;2023-05-10T07:45:41;16.50;99.90
32322;DHT22;61553;48.994;8.940;2023-05-10T07:48:07;16.30;99.90
32322;DHT22;61553;48.994;8.940;2023-05-10T07:50:32;16.20;99.90
32322;DHT22;61553;48.994;8.940;2023-05-10T07:52:58;16.10;99.90
32322;DHT22;61553;48.994;8.940;2023-05-10T07:55:24;16.10;99.90
32322;DHT22;61553;48.994;8.940;2023-05-10T07:57:49;16.20;99.90
32322;DHT22;61553;48.994;8.940;2023-05-10T08:00:19;16.30;99.90
32322;DHT22;61553;48.994;8.940;2023-05-10T08:02:45;16.60;99.90
32322;DHT22;61553;48.994;8.940;2023-05-10T08:05:11;16.80;99.90
32322;DHT22;61553;48.994;8.940;2023-05-10T08:07:36;16.90;99.90
32322;DHT22;61553;48.994;8.940;2023-05-10T08:10:03;16.90;99.90
32322;DHT22;61553;48.994;8.940;2023-05-10T08:12:28;16.80;99.90
32322;DHT22;61553;48.994;8.940;2023-05-10T08:14:54;16.70;99.90
32322;DHT22;61553;48.994;8.940;2023-05-10T08:17:19;16.50;99.90
32322;DHT22;61553;48.994;8.940;2023-05-10T08:19:45;16.50;99.90
32322;DHT22;61553;48.994;8.940;2023-05-10T08:22:11;16.60;99.90
32322;DHT22;61553;48.994;8.940;2023-05-10T08:24:36;16.60;99.90
32322;DHT22;61553;48.994;8.940;2023-05-10T08:27:05;16.80;99.90
32322;DHT22;61553;48.994;8.940;2023-05-10T08:29:31;17.00;99.90
32322;DHT22;61553;48.994;8.940;2023-05-10T08:31:56;17.20;99.90
32322;DHT22;61553;48.994;8.940;2023-05-10T08:34:22;17.30;99.90
32322;DHT22;61553;48.994;8.940;2023-05-10T08:36:48;17.20;99.90
32322;DHT22;61553;48.994;8.940;2023-05-10T08:39:14;17.00;99.90
32322;DHT22;61553;48.994;8.940;2023-05-10T08:41:43;17.00;99.90
32322;DHT22;61553;48.994;8.940;2023-05-10T08:44:09;17.20;99.90
32322;DHT22;61553;48.994;8.940;2023-05-10T08:46:37;17.60;99.90
32322;DHT22;61553;48.994;8.940;2023-05-10T08:49:07;17.70;99.90
32322;DHT22;61553;48.994;8.940;2023-05-10T08:51:40;18.00;99.90
32322;DHT22;61553;48.994;8.940;2023-05-10T08:54:07;17.90;99.90
32322;DHT22;61553;48.994;8.940;2023-05-10T08:56:33;17.90;99.90
32322;DHT22;61553;48.994;8.940;2023-05-10T08:58:58;17.70;99.90
32322;DHT22;61553;48.994;8.940;2023-05-10T09:01:25;17.70;99.90
32322;DHT22;61553;48.994;8.940;2023-05-10T09:03:52;17.60;99.90
32322;DHT22;61553;48.994;8.940;2023-05-10T09:06:18;17.50;99.90
32322;DHT22;61553;48.994;8.940;2023-05-10T09:08:44;17.90;99.90
32322;DHT22;61553;48.994;8.940;2023-05-10T09:11:12;18.20;99.90
32322;DHT22;61553;48.994;8.940;2023-05-10T09:13:38;19.20;99.90
32322;DHT22;61553;48.994;8.940;2023-05-10T09:16:04;20.80;99.90
32322;DHT22;61553;48.994;8.940;2023-05-10T09:18:30;21.20;99.90
32322;DHT22;61553;48.994;8.940;2023-05-10T09:20:56;20.80;99.90
32322;DHT22;61553;48.994;8.940;2023-05-10T09:23:21;20.00;99.90
32322;DHT22;61553;48.994;8.940;2023-05-10T09:25:47;19.30;99.90
32322;DHT22;61553;48.994;8.940;2023-05-10T09:28:13;19.30;99.90
32322;DHT22;61553;48.994;8.940;2023-05-10T09:30:39;19.30;99.90
32322;DHT22;61553;48.994;8.940;2023-05-10T09:33:05;19.10;99.90
32322;DHT22;61553;48.994;8.940;2023-05-10T09:35:32;19.30;99.90
32322;DHT22;61553;48.994;8.940;2023-05-10T09:38:02;20.40;99.90
32322;DHT22;61553;48.994;8.940;2023-05-10T09:40:29;21.60;98.90
32322;DHT22;61553;48.994;8.940;2023-05-10T09:43:03;22.00;96.80
32322;DHT22;61553;48.994;8.940;2023-05-10T09:45:31;21.90;95.40
32322;DHT22;61553;48.994;8.940;2023-05-10T09:47:58;22.10;94.50
32322;DHT22;61553;48.994;8.940;2023-05-10T09:50:24;22.10;93.10
32322;DHT22;61553;48.994;8.940;2023-05-10T09:55:18;21.70;93.00
32322;DHT22;61553;48.994;8.940;2023-05-10T09:57:44;21.00;94.30
32322;DHT22;61553;48.994;8.940;2023-05-10T10:00:10;19.80;95.80
32322;DHT22;61553;48.994;8.940;2023-05-10T10:02:41;19.00;98.00
32322;DHT22;61553;48.994;8.940;2023-05-10T10:05:07;18.90;98.40
32322;DHT22;61553;48.994;8.940;2023-05-10T10:07:34;18.90;99.80
32322;DHT22;61553;48.994;8.940;2023-05-10T10:10:00;19.10;99.90
32322;DHT22;61553;48.994;8.940;2023-05-10T10:12:26;19.10;99.90
32322;DHT22;61553;48.994;8.940;2023-05-10T10:14:52;19.20;99.90
32322;DHT22;61553;48.994;8.940;2023-05-10T10:17:19;19.10;99.90
32322;DHT22;61553;48.994;8.940;2023-05-10T10:19:45;18.90;99.90
32322;DHT22;61553;48.994;8.940;2023-05-10T10:22:11;18.60;99.90
32322;DHT22;61553;48.994;8.940;2023-05-10T10:24:38;18.20;99.90
32322;DHT22;61553;48.994;8.940;2023-05-10T10:27:26;17.70;99.90
32322;DHT22;61553;48.994;8.940;2023-05-10T10:35:41;16.40;99.90
32322;DHT22;61553;48.994;8.940;2023-05-10T10:38:08;16.00;99.90
32322;DHT22;61553;48.994;8.940;2023-05-10T10:40:34;15.70;99.90
32322;DHT22;61553;48.994;8.940;2023-05-10T10:43:22;15.40;99.90
32322;DHT22;61553;48.994;8.940;2023-05-10T10:46:14;15.30;99.90
32322;DHT22;61553;48.994;8.940;2023-05-10T10:48:48;15.40;99.90
32322;DHT22;61553;48.994;8.940;2023-05-10T10:51:14;15.50;99.90
32322;DHT22;61553;48.994;8.940;2023-05-10T10:53:40;15.90;99.90
32322;DHT22;61553;48.994;8.940;2023-05-10T10:56:12;16.50;99.90
32322;DHT22;61553;48.994;8.940;2023-05-10T10:58:41;17.30;99.90
32322;DHT22;61553;48.994;8.940;2023-05-10T11:01:18;17.70;99.90
32322;DHT22;61553;48.994;8.940;2023-05-10T11:06:34;18.80;99.90
32322;DHT22;61553;48.994;8.940;2023-05-10T11:09:10;19.20;99.90
32322;DHT22;61553;48.994;8.940;2023-05-10T11:11:50;19.40;99.90
32322;DHT22;61553;48.994;8.940;2023-05-10T11:14:22;19.60;99.90
32322;DHT22;61553;48.994;8.940;2023-05-10T11:16:48;19.50;99.90
32322;DHT22;61553;48.994;8.940;2023-05-10T11:19:15;19.40;99.90
32322;DHT22;61553;48.994;8.940;2023-05-10T11:21:52;19.70;99.90
32322;DHT22;61553;48.994;8.940;2023-05-10T11:24:36;19.80;99.90
32322;DHT22;61553;48.994;8.940;2023-05-10T11:27:03;20.10;99.50
32322;DHT22;61553;48.994;8.940;2023-05-10T11:29:28;19.90;99.70
32322;DHT22;61553;48.994;8.940;2023-05-10T11:31:57;20.20;98.50
32322;DHT22;61553;48.994;8.940;2023-05-10T11:34:30;20.30;98.20
32322;DHT22;61553;48.994;8.940;2023-05-10T11:36:57;20.10;97.10
32322;DHT22;61553;48.994;8.940;2023-05-10T11:39:27;19.90;97.20
32322;DHT22;61553;48.994;8.940;2023-05-10T11:41:53;19.80;97.10
32322;DHT22;61553;48.994;8.940;2023-05-10T11:44:18;19.60;97.50
32322;DHT22;61553;48.994;8.940;2023-05-10T11:46:44;19.70;98.30
32322;DHT22;61553;48.994;8.940;2023-05-10T11:49:10;19.80;97.60
32322;DHT22;61553;48.994;8.940;2023-05-10T11:51:36;19.70;97.30
32322;DHT22;61553;48.994;8.940;2023-05-10T11:54:09;19.80;97.60
32322;DHT22;61553;48.994;8.940;2023-05-10T11:56:36;20.00;96.90
32322;DHT22;61553;48.994;8.940;2023-05-10T11:59:03;19.80;97.40
32322;DHT22;61553;48.994;8.940;2023-05-10T12:01:29;19.60;98.30
32322;DHT22;61553;48.994;8.940;2023-05-10T12:03:57;19.50;97.90
32322;DHT22;61553;48.994;8.940;2023-05-10T12:06:31;19.20;98.30
32322;DHT22;61553;48.994;8.940;2023-05-10T12:08:58;19.00;97.80
32322;DHT22;61553;48.994;8.940;2023-05-10T12:11:28;19.30;97.00
32322;DHT22;61553;48.994;8.940;2023-05-10T12:13:55;19.30;96.70
32322;DHT22;61553;48.994;8.940;2023-05-10T12:16:24;19.60;97.00
32322;DHT22;61553;48.994;8.940;2023-05-10T12:18:51;19.40;96.60
32322;DHT22;61553;48.994;8.940;2023-05-10T12:21:18;19.40;96.60
32322;DHT22;61553;48.994;8.940;2023-05-10T12:23:46;19.20;96.90
32322;DHT22;61553;48.994;8.940;2023-05-10T12:26:12;19.00;96.60
32322;DHT22;61553;48.994;8.940;2023-05-10T12:28:38;19.10;96.90
32322;DHT22;61553;48.994;8.940;2023-05-10T12:31:07;19.30;96.50
32322;DHT22;61553;48.994;8.940;2023-05-10T12:33:41;19.50;96.00
32322;DHT22;61553;48.994;8.940;2023-05-10T12:36:09;19.50;96.20
32322;DHT22;61553;48.994;8.940;2023-05-10T12:38:36;19.50;96.20
32322;DHT22;61553;48.994;8.940;2023-05-10T12:41:07;19.20;95.90
32322;DHT22;61553;48.994;8.940;2023-05-10T12:43:34;19.20;95.00
32322;DHT22;61553;48.994;8.940;2023-05-10T12:48:36;19.40;94.90
32322;DHT22;61553;48.994;8.940;2023-05-10T12:51:03;19.40;94.60
32322;DHT22;61553;48.994;8.940;2023-05-10T12:53:29;19.50;95.10
32322;DHT22;61553;48.994;8.940;2023-05-10T12:55:55;19.60;94.40
32322;DHT22;61553;48.994;8.940;2023-05-10T12:58:21;19.80;94.70
32322;DHT22;61553;48.994;8.940;2023-05-10T13:00:47;19.80;94.50
32322;DHT22;61553;48.994;8.940;2023-05-10T13:03:12;20.00;94.40
32322;DHT22;61553;48.994;8.940;2023-05-10T13:05:38;20.00;94.10
32322;DHT22;61553;48.994;8.940;2023-05-10T13:08:04;20.00;94.50
32322;DHT22;61553;48.994;8.940;2023-05-10T13:10:30;20.20;94.20
32322;DHT22;61553;48.994;8.940;2023-05-10T13:13:00;20.30;93.30
32322;DHT22;61553;48.994;8.940;2023-05-10T13:15:26;20.30;93.00
32322;DHT22;61553;48.994;8.940;2023-05-10T13:17:52;20.20;93.30
32322;DHT22;61553;48.994;8.940;2023-05-10T13:20:18;20.10;92.70
32322;DHT22;61553;48.994;8.940;2023-05-10T13:22:44;19.70;93.10
32322;DHT22;61553;48.994;8.940;2023-05-10T13:25:10;19.90;93.10
32322;DHT22;61553;48.994;8.940;2023-05-10T13:27:36;20.10;90.30
32322;DHT22;61553;48.994;8.940;2023-05-10T13:30:03;20.00;87.80
32322;DHT22;61553;48.994;8.940;2023-05-10T13:32:29;20.00;89.20
32322;DHT22;61553;48.994;8.940;2023-05-10T13:34:55;20.00;90.40
32322;DHT22;61553;48.994;8.940;2023-05-10T13:37:21;20.00;88.90
32322;DHT22;61553;48.994;8.940;2023-05-10T13:39:47;19.90;90.60
32322;DHT22;61553;48.994;8.940;2023-05-10T13:42:14;19.70;89.80
32322;DHT22;61553;48.994;8.940;2023-05-10T13:44:40;19.80;90.80
32322;DHT22;61553;48.994;8.940;2023-05-10T13:47:06;19.80;89.30
32322;DHT22;61553;48.994;8.940;2023-05-10T13:49:31;19.70;90.40
32322;DHT22;61553;48.994;8.940;2023-05-10T13:51:57;19.60;90.10
32322;DHT22;61553;48.994;8.940;2023-05-10T13:54:23;19.80;88.50
32322;DHT22;61553;48.994;8.940;2023-05-10T13:56:49;19.90;87.00
32322;DHT22;61553;48.994;8.940;2023-05-10T13:59:15;20.00;86.20
32322;DHT22;61553;48.994;8.940;2023-05-10T14:01:41;20.20;87.30
32322;DHT22;61553;48.994;8.940;2023-05-10T14:04:08;20.10;86.00
32322;DHT22;61553;48.994;8.940;2023-05-10T14:06:38;20.00;84.40
32322;DHT22;61553;48.994;8.940;2023-05-10T14:09:04;19.90;86.00
32322;DHT22;61553;48.994;8.940;2023-05-10T14:11:29;19.90;85.50
32322;DHT22;61553;48.994;8.940;2023-05-10T14:13:55;19.80;86.20
32322;DHT22;61553;48.994;8.940;2023-05-10T14:16:21;20.00;86.60
32322;DHT22;61553;48.994;8.940;2023-05-10T14:18:47;19.80;86.70
32322;DHT22;61553;48.994;8.940;2023-05-10T14:21:13;19.70;85.90
32322;DHT22;61553;48.994;8.940;2023-05-10T14:23:39;19.80;86.40
32322;DHT22;61553;48.994;8.940;2023-05-10T14:26:04;19.80;86.90
32322;DHT22;61553;48.994;8.940;2023-05-10T14:28:30;19.60;84.10
32322;DHT22;61553;48.994;8.940;2023-05-10T14:30:56;19.60;83.70
32322;DHT22;61553;48.994;8.940;2023-05-10T14:33:21;19.70;85.20
32322;DHT22;61553;48.994;8.940;2023-05-10T14:35:47;19.70;85.20
32322;DHT22;61553;48.994;8.940;2023-05-10T14:38:14;19.60;86.10
32322;DHT22;61553;48.994;8.940;2023-05-10T14:40:40;19.60;84.40
32322;DHT22;61553;48.994;8.940;2023-05-10T14:43:05;19.80;86.00
32322;DHT22;61553;48.994;8.940;2023-05-10T14:45:31;19.80;83.60
32322;DHT22;61553;48.994;8.940;2023-05-10T14:47:57;19.80;83.50
32322;DHT22;61553;48.994;8.940;2023-05-10T14:50:23;19.80;84.60
32322;DHT22;61553;48.994;8.940;2023-05-10T14:52:48;19.60;83.90
32322;DHT22;61553;48.994;8.940;2023-05-10T14:55:14;19.60;84.70
32322;DHT22;61553;48.994;8.940;2023-05-10T14:57:40;19.50;83.30
32322;DHT22;61553;48.994;8.940;2023-05-10T15:00:07;19.30;85.00
32322;DHT22;61553;48.994;8.940;2023-05-10T15:02:32;19.20;86.20
32322;DHT22;61553;48.994;8.940;2023-05-10T15:04:58;19.30;85.80
32322;DHT22;61553;48.994;8.940;2023-05-10T15:07:24;19.10;86.40
32322;DHT22;61553;48.994;8.940;2023-05-10T15:09:50;19.20;87.40
32322;DHT22;61553;48.994;8.940;2023-05-10T15:12:17;19.20;86.50
32322;DHT22;61553;48.994;8.940;2023-05-10T15:14:43;19.30;84.10
32322;DHT22;61553;48.994;8.940;2023-05-10T15:17:09;19.30;82.20
32322;DHT22;61553;48.994;8.940;2023-05-10T15:19:35;19.30;82.60
32322;DHT22;61553;48.994;8.940;2023-05-10T15:22:01;19.40;84.20
32322;DHT22;61553;48.994;8.940;2023-05-10T15:24:28;19.40;84.40
32322;DHT22;61553;48.994;8.940;2023-05-10T15:26:53;19.30;83.40
32322;DHT22;61553;48.994;8.940;2023-05-10T15:29:19;19.20;82.20
32322;DHT22;61553;48.994;8.940;2023-05-10T15:31:49;19.10;84.40
32322;DHT22;61553;48.994;8.940;2023-05-10T15:34:15;19.20;84.50
32322;DHT22;61553;48.994;8.940;2023-05-10T15:36:41;19.20;86.50
32322;DHT22;61553;48.994;8.940;2023-05-10T15:39:07;19.20;87.60
32322;DHT22;61553;48.994;8.940;2023-05-10T15:41:34;19.00;88.50
32322;DHT22;61553;48.994;8.940;2023-05-10T15:44:00;19.00;88.90
32322;DHT22;61553;48.994;8.940;2023-05-10T15:46:27;18.80;85.80
32322;DHT22;61553;48.994;8.940;2023-05-10T15:48:53;18.90;86.20
32322;DHT22;61553;48.994;8.940;2023-05-10T15:51:18;18.90;86.70
32322;DHT22;61553;48.994;8.940;2023-05-10T15:53:44;18.90;85.90
32322;DHT22;61553;48.994;8.940;2023-05-10T15:56:10;18.90;85.20
32322;DHT22;61553;48.994;8.940;2023-05-10T15:58:37;18.80;86.20
32322;DHT22;61553;48.994;8.940;2023-05-10T16:01:03;18.80;87.00